• 1385014 10153382300060425 128216538 n
  • 3
  • 6
  • 7
  • 1
  • 10
  • 未命名
  • 121
  • 55
  • 2
  • cargo

Click here and log in to see your monthly flight duties. 請按此登入個人班表區

Welcome aboard

Current Weather

[source: ADDS]
METAR
RCTP 211030Z 30004KT 260V330 5000 BR FEW025 SCT200 25/22 Q1014 NOSIG RMK A2995 =
TAF
TAF RCTP 211100Z 2112/2218 32005KT 6000 FEW015 SCT050 TEMPO 2112/2118 4000 BR BECMG 2118/2119 02017KT FEW010 BKN020 BKN050 TEMPO 2119/2201 3200 RA BR SCT008 BKN015 BKN040 TEMPO 2203/2209 02018G30KT TEMPO 2212/2218 FEW012 BKN032 =